METAR Data
IDs: Format: Raw Decoded Include TAF

Data at: 1814 UTC 03 Jul 2020

KDVO 031755Z AUTO 00000KT 10SM FEW020 17/11 A3004 RMK AO2
KDVO 031735Z AUTO 00000KT 10SM BKN019 17/11 A3004 RMK AO2
KDVO 031715Z AUTO 00000KT 10SM OVC017 16/12 A3004 RMK AO2
KDVO 031655Z AUTO 00000KT 10SM OVC015 16/11 A3004 RMK AO2
KDVO 031635Z AUTO 00000KT 10SM OVC014 15/11 A3004 RMK AO2
KDVO 031615Z AUTO VRB05KT 10SM OVC013 14/11 A3004 RMK AO2
KDVO 031555Z AUTO VRB05KT 10SM OVC013 14/11 A3004 RMK AO2
KDVO 031535Z AUTO 31004KT 10SM OVC012 14/11 A3004 RMK AO2
KDVO 031515Z AUTO 32003KT 10SM OVC011 14/12 A3003 RMK AO2
KDVO 031455Z AUTO 34005KT 10SM OVC011 13/11 A3002 RMK AO2
KDVO 031435Z AUTO 33005KT 10SM OVC011 13/11 A3002 RMK AO2
KDVO 031415Z AUTO 33005KT 10SM OVC010 14/12 A3001 RMK AO2
KDVO 031355Z AUTO 00000KT 10SM OVC010 13/11 A3001 RMK AO2
KDVO 031335Z AUTO 00000KT 10SM OVC011 13/12 A3001 RMK AO2
KDVO 031315Z AUTO 28003KT 10SM OVC012 13/11 A3000 RMK AO2
KDVO 031255Z AUTO 00000KT 10SM OVC013 13/11 A2999 RMK AO2
KDVO 031235Z AUTO 00000KT 10SM OVC014 12/11 A2998 RMK AO2
KDVO 031215Z AUTO 00000KT 10SM OVC017 12/10 A2998 RMK AO2
KDVO 031155Z AUTO 00000KT 10SM OVC015 11/10 A2997 RMK AO2
KDVO 031135Z AUTO 00000KT 10SM BKN015 11/11 A2997 RMK AO2
KDVO 031115Z AUTO 00000KT 10SM CLR 11/10 A2996 RMK AO2
KDVO 031055Z AUTO 00000KT 10SM CLR 12/10 A2996 RMK AO2
KDVO 031035Z AUTO 00000KT 10SM CLR 11/10 A2996 RMK AO2
KDVO 031015Z AUTO 00000KT 10SM CLR 11/10 A2996 RMK AO2
KDVO 030955Z AUTO 00000KT 10SM CLR 10/10 A2996 RMK AO2
KDVO 030935Z AUTO 00000KT 10SM CLR 10/09 A2995 RMK AO2
KDVO 030915Z AUTO 00000KT 10SM CLR 10/09 A2995 RMK AO2
KDVO 030855Z AUTO 00000KT 10SM CLR 11/10 A2995 RMK AO2
KDVO 030835Z AUTO 00000KT 10SM CLR 10/10 A2995 RMK AO2
KDVO 030815Z AUTO 00000KT 10SM CLR 10/09 A2995 RMK AO2
KDVO 030755Z AUTO 00000KT 10SM CLR 11/10 A2995 RMK AO2
KDVO 030735Z AUTO 00000KT 10SM CLR 11/10 A2995 RMK AO2
KDVO 030715Z AUTO 00000KT 10SM CLR 11/09 A2995 RMK AO2
KDVO 030655Z AUTO 00000KT 10SM CLR 11/10 A2995 RMK AO2
KDVO 030635Z AUTO 35004KT 10SM CLR 12/10 A2995 RMK AO2
KDVO 030615Z AUTO 10SM CLR 12/10 A2995 RMK AO2
KDVO 030555Z AUTO 34007KT 10SM CLR 12/11 A2995 RMK AO2
KDVO 030535Z AUTO 34007KT 10SM CLR 13/11 A2994 RMK AO2
KDVO 030515Z AUTO 34008KT 10SM CLR 13/11 A2994 RMK AO2
KDVO 030455Z AUTO 34010KT 10SM CLR 13/11 A2993 RMK AO2
KDVO 030435Z AUTO 35009KT 10SM CLR 14/11 A2993 RMK AO2
KDVO 030415Z AUTO 34010KT 10SM CLR 14/11 A2992 RMK AO2
KDVO 030355Z AUTO 35008G14KT 10SM CLR 15/11 A2991 RMK AO2
KDVO 030335Z AUTO 34009KT 10SM CLR 15/11 A2991 RMK AO2
KDVO 030315Z AUTO 35009G14KT 10SM CLR 16/11 A2990 RMK AO2
KDVO 030255Z AUTO 34012KT 10SM CLR 17/11 A2990 RMK AO2
KDVO 030235Z AUTO 34011KT 10SM CLR 19/11 A2989 RMK AO2
KDVO 030215Z AUTO 34010KT 10SM CLR 20/11 A2989 RMK AO2
KDVO 030155Z AUTO VRB05KT 10SM CLR 21/11 A2989 RMK AO2
KDVO 030135Z AUTO VRB05KT 10SM CLR 22/11 A2989 RMK AO2
KDVO 030115Z AUTO VRB04KT 10SM CLR 23/11 A2988 RMK AO2
KDVO 030055Z AUTO VRB05G13KT 10SM CLR 23/11 A2988 RMK AO2
KDVO 030035Z AUTO 32009KT 10SM CLR 24/11 A2988 RMK AO2
KDVO 030015Z AUTO 32012KT 10SM CLR 25/12 A2988 RMK AO2
KDVO 022355Z AUTO 33011KT 10SM CLR 25/12 A2988 RMK AO2
KDVO 022335Z AUTO 33007G13KT 10SM CLR 25/12 A2988 RMK AO2
KDVO 022315Z AUTO 31007G14KT 10SM CLR 25/12 A2988 RMK AO2
KDVO 022255Z AUTO 33011G16KT 10SM CLR 26/12 A2988 RMK AO2
KDVO 022235Z AUTO 36010G17KT 10SM CLR 26/12 A2988 RMK AO2
KDVO 022215Z AUTO 35009G16KT 10SM CLR 26/12 A2988 RMK AO2
KDVO 022155Z AUTO 36008G13KT 10SM CLR 27/12 A2987 RMK AO2
KDVO 022135Z AUTO 02008KT 9SM CLR 26/12 A2987 RMK AO2
KDVO 022115Z AUTO 04008G14KT 10SM CLR 27/13 A2987 RMK AO2
KDVO 022055Z AUTO 03008KT 10SM CLR 26/12 A2987 RMK AO2
KDVO 022035Z AUTO VRB05G13KT 10SM CLR 24/12 A2987 RMK AO2
KDVO 022015Z AUTO 04008G13KT 10SM CLR 25/12 A2988 RMK AO2
KDVO 021955Z AUTO 05006KT 10SM CLR 24/12 A2988 RMK AO2
KDVO 021935Z AUTO 04007KT 010V090 10SM CLR 22/12 A2989 RMK AO2
KDVO 021915Z AUTO VRB06KT 020V080 10SM CLR 23/12 A2989 RMK AO2
KDVO 021855Z AUTO VRB05KT 10SM CLR 22/12 A2989 RMK AO2
KDVO 021835Z AUTO 01005KT 10SM CLR 21/12 A2989 RMK AO2
KDVO 021815Z AUTO 05005KT 10SM CLR 20/12 A2989 RMK AO2
KDVO 021755Z AUTO VRB04KT 10SM CLR 19/12 A2989 RMK AO2
KDVO 021735Z AUTO VRB04KT 9SM CLR 18/12 A2989 RMK AO2
KDVO 021715Z AUTO 35005KT 10SM CLR 18/12 A2990 RMK AO2
KDVO 021655Z AUTO VRB04KT 9SM FEW014 17/12 A2990 RMK AO2
KDVO 021635Z AUTO 05005KT 9SM BKN014 16/12 A2990 RMK AO2
KDVO 021615Z AUTO VRB05KT 8SM OVC013 15/12 A2990 RMK AO2
KDVO 021555Z AUTO 03005KT 8SM OVC013 15/12 A2989 RMK AO2
KDVO 021535Z AUTO VRB05KT 8SM OVC012 14/12 A2989 RMK AO2
KDVO 021515Z AUTO 01004KT 6SM HZ OVC011 14/12 A2989 RMK AO2
KDVO 021455Z AUTO 01003KT 9SM OVC012 14/11 A2988 RMK AO2
KDVO 021435Z AUTO 00000KT 9SM OVC010 13/11 A2987 RMK AO2
KDVO 021415Z AUTO 19004KT 8SM OVC010 13/11 A2986 RMK AO2
KDVO 021355Z AUTO 16004KT 9SM OVC010 13/11 A2986 RMK AO2
KDVO 021335Z AUTO 17003KT 9SM OVC010 13/11 A2986 RMK AO2
KDVO 021315Z AUTO 16004KT 9SM OVC009 13/11 A2985 RMK AO2
KDVO 021255Z AUTO 00000KT 8SM OVC009 13/11 A2985 RMK AO2
KDVO 021235Z AUTO 00000KT 10SM OVC010 13/11 A2984 RMK AO2
KDVO 021215Z AUTO 00000KT 10SM OVC009 13/11 A2984 RMK AO2
KDVO 021155Z AUTO 00000KT 10SM OVC009 13/11 A2983 RMK AO2
KDVO 021135Z AUTO 00000KT 10SM OVC009 13/11 A2983 RMK AO2
KDVO 021115Z AUTO 20003KT 10SM OVC010 12/11 A2982 RMK AO2
KDVO 021055Z AUTO 18003KT 10SM OVC010 12/11 A2982 RMK AO2
KDVO 021035Z AUTO 00000KT 10SM OVC011 12/11 A2982 RMK AO2
KDVO 021015Z AUTO 00000KT 10SM OVC011 12/11 A2982 RMK AO2
KDVO 020955Z AUTO 00000KT 10SM OVC013 12/11 A2982 RMK AO2
KDVO 020935Z AUTO 00000KT 10SM BKN014 BKN019 BKN029 11/10 A2982 RMK AO2
KDVO 020915Z AUTO 00000KT 10SM FEW020 SCT028 SCT035 11/10 A2982 RMK AO2
KDVO 020855Z AUTO 00000KT 10SM FEW013 BKN020 BKN028 10/09 A2982 RMK AO2
KDVO 020835Z AUTO 00000KT 9SM FEW013 BKN019 BKN030 11/09 A2982 RMK AO2
KDVO 020815Z AUTO 00000KT 10SM FEW021 SCT030 11/10 A2983 RMK AO2
KDVO 020755Z AUTO 34003KT 10SM CLR 10/09 A2983 RMK AO2
KDVO 020735Z AUTO 34003KT 10SM CLR 10/09 A2983 RMK AO2
KDVO 020715Z AUTO 00000KT 10SM CLR 11/09 A2983 RMK AO2
KDVO 020655Z AUTO 00000KT 10SM CLR 13/11 A2983 RMK AO2
KDVO 020635Z AUTO 00000KT 10SM CLR 13/11 A2982 RMK AO2
KDVO 020615Z AUTO 00000KT 10SM CLR 12/11 A2982 RMK AO2